メインページ
METAR-TAF:

METAR-TAF

空港 :

チューレ空軍基地

トゥーレ, グリーンランド

緯度: 76-32N, 経度: 068-42W, 海抜: 77m

現時点の気象観測

当レポートは54分前の11:56(UTC)に作成
東/南東の風 8kt
気温 -5°C
湿度 68%
気圧 1004 hPa
視程10km以上
高度4000ftの雲はほとんどない
高度4700ftの雲はほとんどない
高度7500ftの千切れ雲あり

METAR: BGTL 261156Z AUTO 12008KT 9999 FEW040 FEW047 BKN075 M05/M10 A2964 RMK AO2 SLP024 T10531103 11049 21078 50001 TSNO $

時間: 09:50 (12:50 UTC)

予報

当レポートは35分前の12:15(UTC)に作成
予報は26日の 12時(UTC)から 27日の 15時(UTC)まで有効
東/南東の風 9kt
視程10km以上
高度3000ftの雲は散在している
高度5000ftの千切れ雲あり
26日の 14時(UTC)から 26日の 15時(UTC)まで徐々に
東/南東の風 15kt、最大30ktの突風を伴う
視程: 6000m
高度3000ftの千切れ雲あり
小雪, 低い地吹雪
27日の 03時(UTC)から 27日の 04時(UTC)まで徐々に
東/南東の風 30kt、最大40ktの突風を伴う
視程10km以上
高度3000ftの千切れ雲あり
低い地吹雪
27日の 11時(UTC)から 27日の 12時(UTC)まで徐々に
東/南東の風 12kt、最大18ktの突風を伴う
視程10km以上
高度3000ftの千切れ雲あり

TAF: BGTL 261215Z 2612/2715 12009KT 9999 SCT030 BKN050 QNH2959INS BECMG 2614/2615 12015G30KT 6000 -SN DRSN BKN030 620309 520008 QNH2951INS BECMG 2703/2704 12030G40KT 9999 DRSN BKN030 620309 530008 QNH2950INS BECMG 2711/2712 12012G18KT 9999 NSW BKN030 620309 QNH2951INS TXM03/2620Z TNM05/2612Z

4,000以上の空港の気象観測と天気予報(METAR報とTAF報)

利用可能な観測所は地図上に黄色い丸と赤い丸で示す。

丸の上にカーソルを重ねると観測所名を参照できる。

次にクリックすると気象観測と天気予報を参照できる。

マップの切り替え:黒色「×」印の緑ボタンをクリックして拡大、「-」印の緑ボタンをクリックして縮小、緑色の三角印をクリックして隣りの地図に切り替え


METAR-TAF: